sensor_id;sensor_type;location;lat;lon;timestamp;pressure;altitude;pressure_sealevel;temperature;humidity
50057;BME280;36875;49.468;11.200;2023-11-18T00:00:29;98654.63;;;26.01;35.03
50057;BME280;36875;49.468;11.200;2023-11-18T00:02:55;98650.06;;;26.05;34.98
50057;BME280;36875;49.468;11.200;2023-11-18T00:05:22;98654.84;;;26.16;34.44
50057;BME280;36875;49.468;11.200;2023-11-18T00:07:49;98662.84;;;26.09;34.66
50057;BME280;36875;49.468;11.200;2023-11-18T00:10:15;98660.56;;;26.11;34.36
50057;BME280;36875;49.468;11.200;2023-11-18T00:12:40;98669.53;;;26.08;34.24
50057;BME280;36875;49.468;11.200;2023-11-18T00:15:08;98671.28;;;26.13;34.59
50057;BME280;36875;49.468;11.200;2023-11-18T00:17:36;98676.34;;;26.02;34.80
50057;BME280;36875;49.468;11.200;2023-11-18T00:20:02;98675.75;;;25.96;34.57
50057;BME280;36875;49.468;11.200;2023-11-18T00:22:36;98677.38;;;25.98;34.85
50057;BME280;36875;49.468;11.200;2023-11-18T00:25:01;98679.81;;;25.99;34.69
50057;BME280;36875;49.468;11.200;2023-11-18T00:27:30;98668.63;;;25.95;34.47
50057;BME280;36875;49.468;11.200;2023-11-18T00:29:55;98679.81;;;25.99;34.25
50057;BME280;36875;49.468;11.200;2023-11-18T00:32:21;98673.88;;;26.09;34.29
50057;BME280;36875;49.468;11.200;2023-11-18T00:34:47;98672.75;;;26.10;34.46
50057;BME280;36875;49.468;11.200;2023-11-18T00:37:12;98674.63;;;25.89;34.25
50057;BME280;36875;49.468;11.200;2023-11-18T00:39:39;98675.41;;;25.89;34.16
50057;BME280;36875;49.468;11.200;2023-11-18T00:42:05;98678.34;;;25.84;34.84
50057;BME280;36875;49.468;11.200;2023-11-18T00:44:31;98672.19;;;25.87;34.31
50057;BME280;36875;49.468;11.200;2023-11-18T00:46:56;98683.06;;;25.84;34.13
50057;BME280;36875;49.468;11.200;2023-11-18T00:49:23;98677.59;;;25.75;34.66
50057;BME280;36875;49.468;11.200;2023-11-18T00:51:48;98680.88;;;25.68;34.96
50057;BME280;36875;49.468;11.200;2023-11-18T00:54:14;98684.72;;;25.76;34.83
50057;BME280;36875;49.468;11.200;2023-11-18T00:56:40;98682.63;;;25.73;34.16
50057;BME280;36875;49.468;11.200;2023-11-18T00:59:06;98680.72;;;25.65;34.39
50057;BME280;36875;49.468;11.200;2023-11-18T01:01:32;98674.91;;;25.66;34.34
50057;BME280;36875;49.468;11.200;2023-11-18T01:03:57;98680.75;;;25.56;34.60
50057;BME280;36875;49.468;11.200;2023-11-18T01:06:24;98675.06;;;25.61;34.90
50057;BME280;36875;49.468;11.200;2023-11-18T01:08:50;98676.66;;;25.62;34.34
50057;BME280;36875;49.468;11.200;2023-11-18T01:11:16;98681.38;;;25.62;34.65
50057;BME280;36875;49.468;11.200;2023-11-18T01:13:45;98677.84;;;25.52;34.50
50057;BME280;36875;49.468;11.200;2023-11-18T01:16:10;98679.97;;;25.47;35.00
50057;BME280;36875;49.468;11.200;2023-11-18T01:18:36;98682.59;;;25.43;34.73
50057;BME280;36875;49.468;11.200;2023-11-18T01:21:02;98682.09;;;25.41;34.91
50057;BME280;36875;49.468;11.200;2023-11-18T01:23:28;98683.22;;;25.40;34.97
50057;BME280;36875;49.468;11.200;2023-11-18T01:25:53;98681.16;;;25.37;34.68
50057;BME280;36875;49.468;11.200;2023-11-18T01:28:21;98686.34;;;25.30;34.73
50057;BME280;36875;49.468;11.200;2023-11-18T01:30:48;98688.63;;;25.28;34.98
50057;BME280;36875;49.468;11.200;2023-11-18T01:33:13;98694.59;;;25.21;34.83
50057;BME280;36875;49.468;11.200;2023-11-18T01:35:40;98684.38;;;25.21;34.90
50057;BME280;36875;49.468;11.200;2023-11-18T01:38:05;98690.56;;;25.18;34.48
50057;BME280;36875;49.468;11.200;2023-11-18T01:40:31;98689.75;;;25.18;35.08
50057;BME280;36875;49.468;11.200;2023-11-18T01:42:58;98701.59;;;25.10;34.57
50057;BME280;36875;49.468;11.200;2023-11-18T01:45:24;98695.09;;;25.14;34.69
50057;BME280;36875;49.468;11.200;2023-11-18T01:47:53;98695.94;;;25.06;35.04
50057;BME280;36875;49.468;11.200;2023-11-18T01:50:19;98693.81;;;25.03;35.20
50057;BME280;36875;49.468;11.200;2023-11-18T01:52:46;98699.00;;;24.96;35.19
50057;BME280;36875;49.468;11.200;2023-11-18T01:55:12;98699.66;;;24.93;34.79
50057;BME280;36875;49.468;11.200;2023-11-18T01:57:38;98706.78;;;24.94;34.85
50057;BME280;36875;49.468;11.200;2023-11-18T02:00:09;98700.00;;;24.91;34.68
50057;BME280;36875;49.468;11.200;2023-11-18T02:02:36;98691.88;;;24.86;35.42
50057;BME280;36875;49.468;11.200;2023-11-18T02:05:04;98706.66;;;24.81;35.21
50057;BME280;36875;49.468;11.200;2023-11-18T02:07:32;98700.81;;;24.74;34.97
50057;BME280;36875;49.468;11.200;2023-11-18T02:09:58;98700.16;;;24.77;35.48
50057;BME280;36875;49.468;11.200;2023-11-18T02:12:29;98702.91;;;24.69;35.61
50057;BME280;36875;49.468;11.200;2023-11-18T02:15:00;98706.00;;;24.67;35.27
50057;BME280;36875;49.468;11.200;2023-11-18T02:17:28;98710.34;;;24.68;35.04
50057;BME280;36875;49.468;11.200;2023-11-18T02:19:56;98715.53;;;24.61;35.23
50057;BME280;36875;49.468;11.200;2023-11-18T02:22:23;98712.28;;;24.59;35.31
50057;BME280;36875;49.468;11.200;2023-11-18T02:24:49;98715.22;;;24.54;35.37
50057;BME280;36875;49.468;11.200;2023-11-18T02:27:16;98708.38;;;24.51;35.23
50057;BME280;36875;49.468;11.200;2023-11-18T02:29:46;98716.44;;;24.48;35.57
50057;BME280;36875;49.468;11.200;2023-11-18T02:32:18;98708.84;;;24.36;35.38
50057;BME280;36875;49.468;11.200;2023-11-18T02:34:51;98717.25;;;24.39;35.28
50057;BME280;36875;49.468;11.200;2023-11-18T02:37:19;98713.84;;;24.34;35.48
50057;BME280;36875;49.468;11.200;2023-11-18T02:39:51;98707.69;;;24.28;35.68
50057;BME280;36875;49.468;11.200;2023-11-18T02:42:21;98716.91;;;24.23;35.69
50057;BME280;36875;49.468;11.200;2023-11-18T02:44:48;98710.91;;;24.21;35.52
50057;BME280;36875;49.468;11.200;2023-11-18T02:47:16;98714.78;;;24.20;35.82
50057;BME280;36875;49.468;11.200;2023-11-18T02:49:42;98713.16;;;24.19;35.48
50057;BME280;36875;49.468;11.200;2023-11-18T02:52:08;98710.75;;;24.18;35.70
50057;BME280;36875;49.468;11.200;2023-11-18T02:54:35;98702.47;;;24.09;35.81
50057;BME280;36875;49.468;11.200;2023-11-18T02:57:00;98719.75;;;24.01;35.87
50057;BME280;36875;49.468;11.200;2023-11-18T02:59:27;98722.50;;;24.01;35.43
50057;BME280;36875;49.468;11.200;2023-11-18T03:01:56;98730.56;;;23.97;36.11
50057;BME280;36875;49.468;11.200;2023-11-18T03:04:21;98721.16;;;23.90;35.90
50057;BME280;36875;49.468;11.200;2023-11-18T03:06:49;98721.47;;;23.88;36.11
50057;BME280;36875;49.468;11.200;2023-11-18T03:09:15;98728.41;;;23.85;35.64
50057;BME280;36875;49.468;11.200;2023-11-18T03:11:41;98728.22;;;23.82;35.68
50057;BME280;36875;49.468;11.200;2023-11-18T03:14:09;98721.22;;;23.76;36.21
50057;BME280;36875;49.468;11.200;2023-11-18T03:16:37;98726.84;;;23.71;36.11
50057;BME280;36875;49.468;11.200;2023-11-18T03:19:04;98730.56;;;23.66;36.17
50057;BME280;36875;49.468;11.200;2023-11-18T03:21:30;98729.25;;;23.63;36.07
50057;BME280;36875;49.468;11.200;2023-11-18T03:23:55;98728.56;;;23.58;36.28
50057;BME280;36875;49.468;11.200;2023-11-18T03:26:21;98736.13;;;23.52;36.49
50057;BME280;36875;49.468;11.200;2023-11-18T03:28:46;98733.69;;;23.51;36.38
50057;BME280;36875;49.468;11.200;2023-11-18T03:31:12;98739.97;;;23.42;36.59
50057;BME280;36875;49.468;11.200;2023-11-18T03:33:39;98739.78;;;23.39;36.59
50057;BME280;36875;49.468;11.200;2023-11-18T03:36:06;98741.25;;;23.36;36.60
50057;BME280;36875;49.468;11.200;2023-11-18T03:38:31;98733.63;;;23.33;36.44
50057;BME280;36875;49.468;11.200;2023-11-18T03:40:57;98743.31;;;23.31;36.49
50057;BME280;36875;49.468;11.200;2023-11-18T03:43:23;98739.53;;;23.26;36.48
50057;BME280;36875;49.468;11.200;2023-11-18T03:45:49;98736.28;;;23.24;36.52
50057;BME280;36875;49.468;11.200;2023-11-18T03:48:17;98741.59;;;23.21;36.77
50057;BME280;36875;49.468;11.200;2023-11-18T03:50:45;98750.78;;;23.16;36.50
50057;BME280;36875;49.468;11.200;2023-11-18T03:53:10;98748.97;;;23.12;36.75
50057;BME280;36875;49.468;11.200;2023-11-18T03:55:36;98754.75;;;23.10;36.86
50057;BME280;36875;49.468;11.200;2023-11-18T03:58:01;98755.41;;;23.07;36.79
50057;BME280;36875;49.468;11.200;2023-11-18T04:00:28;98753.56;;;23.02;36.67
50057;BME280;36875;49.468;11.200;2023-11-18T04:02:55;98751.25;;;22.96;36.96
50057;BME280;36875;49.468;11.200;2023-11-18T04:05:21;98752.97;;;22.91;37.13
50057;BME280;36875;49.468;11.200;2023-11-18T04:07:47;98750.88;;;22.88;37.16
50057;BME280;36875;49.468;11.200;2023-11-18T04:10:13;98750.34;;;22.86;37.31
50057;BME280;36875;49.468;11.200;2023-11-18T04:12:38;98755.34;;;22.84;37.02
50057;BME280;36875;49.468;11.200;2023-11-18T04:15:05;98750.28;;;22.78;37.06
50057;BME280;36875;49.468;11.200;2023-11-18T04:17:30;98753.03;;;22.78;36.97
50057;BME280;36875;49.468;11.200;2023-11-18T04:19:56;98748.75;;;22.71;37.13
50057;BME280;36875;49.468;11.200;2023-11-18T04:22:22;98749.09;;;22.70;37.10
50057;BME280;36875;49.468;11.200;2023-11-18T04:24:49;98753.06;;;22.64;37.14
50057;BME280;36875;49.468;11.200;2023-11-18T04:27:15;98756.44;;;22.61;37.21
50057;BME280;36875;49.468;11.200;2023-11-18T04:29:40;98754.59;;;22.56;37.27
50057;BME280;36875;49.468;11.200;2023-11-18T04:32:06;98759.88;;;22.52;37.27
50057;BME280;36875;49.468;11.200;2023-11-18T04:34:35;98762.94;;;22.51;37.36
50057;BME280;36875;49.468;11.200;2023-11-18T04:37:00;98760.81;;;22.48;37.42
50057;BME280;36875;49.468;11.200;2023-11-18T04:39:26;98757.88;;;22.44;37.46
50057;BME280;36875;49.468;11.200;2023-11-18T04:41:53;98763.47;;;22.39;37.47
50057;BME280;36875;49.468;11.200;2023-11-18T04:44:18;98762.97;;;22.37;37.46
50057;BME280;36875;49.468;11.200;2023-11-18T04:46:44;98765.50;;;22.33;37.60
50057;BME280;36875;49.468;11.200;2023-11-18T04:49:10;98761.13;;;22.32;37.35
50057;BME280;36875;49.468;11.200;2023-11-18T04:51:35;98751.41;;;22.26;37.46
50057;BME280;36875;49.468;11.200;2023-11-18T04:54:01;98753.59;;;22.24;37.59
50057;BME280;36875;49.468;11.200;2023-11-18T04:56:28;98759.69;;;22.21;37.65
50057;BME280;36875;49.468;11.200;2023-11-18T04:58:55;98750.97;;;22.19;37.78
50057;BME280;36875;49.468;11.200;2023-11-18T05:01:21;98744.78;;;22.13;37.94
50057;BME280;36875;49.468;11.200;2023-11-18T05:03:46;98745.88;;;22.12;37.52
50057;BME280;36875;49.468;11.200;2023-11-18T05:06:11;98735.53;;;22.09;37.77
50057;BME280;36875;49.468;11.200;2023-11-18T05:08:37;98729.84;;;22.06;37.68
50057;BME280;36875;49.468;11.200;2023-11-18T05:11:02;98733.19;;;22.03;37.71
50057;BME280;36875;49.468;11.200;2023-11-18T05:13:30;98731.06;;;22.00;37.67
50057;BME280;36875;49.468;11.200;2023-11-18T05:15:57;98732.47;;;21.97;37.79
50057;BME280;36875;49.468;11.200;2023-11-18T05:18:22;98727.59;;;21.94;37.75
50057;BME280;36875;49.468;11.200;2023-11-18T05:20:48;98728.22;;;21.91;37.90
50057;BME280;36875;49.468;11.200;2023-11-18T05:23:13;98728.81;;;21.88;37.80
50057;BME280;36875;49.468;11.200;2023-11-18T05:25:39;98734.91;;;21.85;37.92
50057;BME280;36875;49.468;11.200;2023-11-18T05:28:05;98736.34;;;21.82;37.88
50057;BME280;36875;49.468;11.200;2023-11-18T05:30:33;98733.09;;;21.80;37.98
50057;BME280;36875;49.468;11.200;2023-11-18T05:33:02;98744.66;;;21.77;38.19
50057;BME280;36875;49.468;11.200;2023-11-18T05:35:29;98749.63;;;21.75;37.86
50057;BME280;36875;49.468;11.200;2023-11-18T05:37:54;98750.22;;;21.72;38.20
50057;BME280;36875;49.468;11.200;2023-11-18T05:40:20;98752.75;;;21.68;38.13
50057;BME280;36875;49.468;11.200;2023-11-18T05:42:45;98751.13;;;21.67;38.13
50057;BME280;36875;49.468;11.200;2023-11-18T05:45:13;98758.31;;;21.63;37.77
50057;BME280;36875;49.468;11.200;2023-11-18T05:47:52;98755.06;;;21.61;38.13
50057;BME280;36875;49.468;11.200;2023-11-18T05:50:19;98752.94;;;21.58;38.02
50057;BME280;36875;49.468;11.200;2023-11-18T05:52:45;98755.97;;;21.56;38.06
50057;BME280;36875;49.468;11.200;2023-11-18T05:55:10;98757.38;;;21.54;38.37
50057;BME280;36875;49.468;11.200;2023-11-18T05:57:36;98763.19;;;21.52;38.11
50057;BME280;36875;49.468;11.200;2023-11-18T06:00:01;98764.28;;;21.51;38.11
50057;BME280;36875;49.468;11.200;2023-11-18T06:02:32;98758.88;;;21.46;38.34
50057;BME280;36875;49.468;11.200;2023-11-18T06:04:59;98759.47;;;21.43;38.32
50057;BME280;36875;49.468;11.200;2023-11-18T06:07:26;98770.22;;;21.40;38.14
50057;BME280;36875;49.468;11.200;2023-11-18T06:09:52;98767.78;;;21.38;38.44
50057;BME280;36875;49.468;11.200;2023-11-18T06:12:18;98757.13;;;21.36;38.37
50057;BME280;36875;49.468;11.200;2023-11-18T06:14:44;98762.38;;;21.33;38.31
50057;BME280;36875;49.468;11.200;2023-11-18T06:17:11;98767.34;;;21.31;38.20
50057;BME280;36875;49.468;11.200;2023-11-18T06:19:38;98755.88;;;21.29;38.22
50057;BME280;36875;49.468;11.200;2023-11-18T06:22:03;98765.47;;;21.26;38.58
50057;BME280;36875;49.468;11.200;2023-11-18T06:24:32;98774.81;;;21.25;38.24
50057;BME280;36875;49.468;11.200;2023-11-18T06:26:58;98771.56;;;21.23;38.62
50057;BME280;36875;49.468;11.200;2023-11-18T06:29:24;98768.63;;;21.20;38.38
50057;BME280;36875;49.468;11.200;2023-11-18T06:31:50;98770.53;;;21.19;38.33
50057;BME280;36875;49.468;11.200;2023-11-18T06:34:15;98772.25;;;21.15;38.29
50057;BME280;36875;49.468;11.200;2023-11-18T06:36:41;98775.25;;;21.13;38.45
50057;BME280;36875;49.468;11.200;2023-11-18T06:39:07;98771.22;;;21.11;38.66
50057;BME280;36875;49.468;11.200;2023-11-18T06:41:34;98772.63;;;21.08;38.49
50057;BME280;36875;49.468;11.200;2023-11-18T06:44:00;98774.81;;;21.06;38.33
50057;BME280;36875;49.468;11.200;2023-11-18T06:46:28;98770.78;;;21.04;38.59
50057;BME280;36875;49.468;11.200;2023-11-18T06:49:00;98772.19;;;21.01;38.33
50057;BME280;36875;49.468;11.200;2023-11-18T06:51:31;98777.44;;;20.97;38.60
50057;BME280;36875;49.468;11.200;2023-11-18T06:54:00;98774.72;;;20.97;38.56
50057;BME280;36875;49.468;11.200;2023-11-18T06:56:28;98772.56;;;20.94;38.54
50057;BME280;36875;49.468;11.200;2023-11-18T06:58:55;98772.03;;;20.92;38.60
50057;BME280;36875;49.468;11.200;2023-11-18T07:01:20;98765.25;;;20.90;38.73
50057;BME280;36875;49.468;11.200;2023-11-18T07:03:46;98763.59;;;20.89;38.50
50057;BME280;36875;49.468;11.200;2023-11-18T07:06:16;98768.56;;;20.87;38.72
50057;BME280;36875;49.468;11.200;2023-11-18T07:08:47;98773.00;;;20.83;38.58
50057;BME280;36875;49.468;11.200;2023-11-18T07:11:13;98767.81;;;20.81;38.54
50057;BME280;36875;49.468;11.200;2023-11-18T07:13:39;98780.69;;;20.80;38.44
50057;BME280;36875;49.468;11.200;2023-11-18T07:16:07;98773.88;;;20.78;38.63
50057;BME280;36875;49.468;11.200;2023-11-18T07:18:34;98776.91;;;20.76;38.58
50057;BME280;36875;49.468;11.200;2023-11-18T07:20:59;98786.53;;;20.74;38.57
50057;BME280;36875;49.468;11.200;2023-11-18T07:23:25;98801.31;;;20.73;38.62
50057;BME280;36875;49.468;11.200;2023-11-18T07:25:51;98800.78;;;20.71;38.66
50057;BME280;36875;49.468;11.200;2023-11-18T07:28:17;98795.59;;;20.69;38.73
50057;BME280;36875;49.468;11.200;2023-11-18T07:30:42;98804.41;;;20.66;38.62
50057;BME280;36875;49.468;11.200;2023-11-18T07:33:09;98799.22;;;20.65;38.63
50057;BME280;36875;49.468;11.200;2023-11-18T07:35:35;98802.56;;;20.62;38.62
50057;BME280;36875;49.468;11.200;2023-11-18T07:38:02;98802.56;;;20.62;38.68
50057;BME280;36875;49.468;11.200;2023-11-18T07:40:27;98797.34;;;20.60;38.65
50057;BME280;36875;49.468;11.200;2023-11-18T07:42:53;98796.81;;;20.58;38.66
50057;BME280;36875;49.468;11.200;2023-11-18T07:45:19;98802.56;;;20.56;38.79
50057;BME280;36875;49.468;11.200;2023-11-18T07:47:44;98803.69;;;20.55;38.59
50057;BME280;36875;49.468;11.200;2023-11-18T07:50:11;98808.66;;;20.53;38.92
50057;BME280;36875;49.468;11.200;2023-11-18T07:52:38;98802.34;;;20.53;38.81
50057;BME280;36875;49.468;11.200;2023-11-18T07:55:04;98811.97;;;20.50;38.90
50057;BME280;36875;49.468;11.200;2023-11-18T07:57:30;98812.78;;;20.51;38.72
50057;BME280;36875;49.468;11.200;2023-11-18T07:59:55;98808.72;;;20.48;38.62
50057;BME280;36875;49.468;11.200;2023-11-18T08:02:21;98818.00;;;20.47;39.00
50057;BME280;36875;49.468;11.200;2023-11-18T08:04:47;98807.69;;;20.44;39.05
50057;BME280;36875;49.468;11.200;2023-11-18T08:07:14;98804.44;;;20.42;39.02
50057;BME280;36875;49.468;11.200;2023-11-18T08:09:39;98807.44;;;20.40;38.83
50057;BME280;36875;49.468;11.200;2023-11-18T08:12:05;98810.47;;;20.39;39.11
50057;BME280;36875;49.468;11.200;2023-11-18T08:14:34;98807.72;;;20.39;38.84
50057;BME280;36875;49.468;11.200;2023-11-18T08:16:59;98812.69;;;20.37;38.82
50057;BME280;36875;49.468;11.200;2023-11-18T08:19:25;98814.00;;;20.39;39.08
50057;BME280;36875;49.468;11.200;2023-11-18T08:21:51;98816.00;;;20.34;38.82
50057;BME280;36875;49.468;11.200;2023-11-18T08:24:18;98837.34;;;20.32;39.02
50057;BME280;36875;49.468;11.200;2023-11-18T08:26:45;98817.16;;;20.28;39.09
50057;BME280;36875;49.468;11.200;2023-11-18T08:29:11;98822.91;;;20.26;38.99
50057;BME280;36875;49.468;11.200;2023-11-18T08:31:38;98815.81;;;20.25;38.86
50057;BME280;36875;49.468;11.200;2023-11-18T08:34:04;98808.22;;;20.22;39.13
50057;BME280;36875;49.468;11.200;2023-11-18T08:36:30;98818.63;;;20.20;39.02
50057;BME280;36875;49.468;11.200;2023-11-18T08:38:57;98818.38;;;20.16;39.25
50057;BME280;36875;49.468;11.200;2023-11-18T08:41:24;98823.84;;;20.16;39.46
50057;BME280;36875;49.468;11.200;2023-11-18T08:43:50;98824.41;;;20.13;39.32
50057;BME280;36875;49.468;11.200;2023-11-18T08:46:16;98818.19;;;20.08;39.60
50057;BME280;36875;49.468;11.200;2023-11-18T08:48:41;98827.19;;;20.08;39.67
50057;BME280;36875;49.468;11.200;2023-11-18T08:51:07;98825.00;;;20.10;39.77
50057;BME280;36875;49.468;11.200;2023-11-18T08:53:33;98824.19;;;20.10;39.72
50057;BME280;36875;49.468;11.200;2023-11-18T08:56:07;98822.22;;;20.15;39.85
50057;BME280;36875;49.468;11.200;2023-11-18T08:58:34;98824.19;;;20.10;39.60
50057;BME280;36875;49.468;11.200;2023-11-18T09:01:00;98832.56;;;20.18;39.07
50057;BME280;36875;49.468;11.200;2023-11-18T09:03:38;98823.72;;;20.27;38.65
50057;BME280;36875;49.468;11.200;2023-11-18T09:06:08;98837.34;;;20.32;39.08
50057;BME280;36875;49.468;11.200;2023-11-18T09:08:44;98827.97;;;20.38;39.11
50057;BME280;36875;49.468;11.200;2023-11-18T09:11:11;98838.03;;;20.42;38.60
50057;BME280;36875;49.468;11.200;2023-11-18T09:13:42;98825.34;;;20.52;38.45
50057;BME280;36875;49.468;11.200;2023-11-18T09:16:08;98812.41;;;20.57;38.27
50057;BME280;36875;49.468;11.200;2023-11-18T09:18:35;98818.69;;;20.58;38.41
50057;BME280;36875;49.468;11.200;2023-11-18T09:21:00;98815.13;;;20.63;38.53
50057;BME280;36875;49.468;11.200;2023-11-18T09:23:27;98823.47;;;20.71;38.49
50057;BME280;36875;49.468;11.200;2023-11-18T09:25:52;98829.41;;;20.78;38.50
50057;BME280;36875;49.468;11.200;2023-11-18T09:28:19;98820.69;;;20.76;38.77
50057;BME280;36875;49.468;11.200;2023-11-18T09:30:46;98809.38;;;20.83;38.85
50057;BME280;36875;49.468;11.200;2023-11-18T09:33:17;98800.50;;;20.91;38.56
50057;BME280;36875;49.468;11.200;2023-11-18T09:35:52;98796.09;;;20.95;38.66
50057;BME280;36875;49.468;11.200;2023-11-18T09:38:21;98799.56;;;21.01;38.42
50057;BME280;36875;49.468;11.200;2023-11-18T09:40:49;98801.84;;;21.13;38.41
50057;BME280;36875;49.468;11.200;2023-11-18T09:43:18;98813.28;;;21.15;38.41
50057;BME280;36875;49.468;11.200;2023-11-18T09:45:44;98813.75;;;21.03;38.87
50057;BME280;36875;49.468;11.200;2023-11-18T09:48:18;98804.78;;;21.16;38.75
50057;BME280;36875;49.468;11.200;2023-11-18T09:50:45;98805.09;;;21.15;38.86
50057;BME280;36875;49.468;11.200;2023-11-18T09:53:14;98810.56;;;21.15;39.01
50057;BME280;36875;49.468;11.200;2023-11-18T09:55:49;98798.66;;;21.06;39.17
50057;BME280;36875;49.468;11.200;2023-11-18T09:58:21;98798.66;;;21.06;39.17
50057;BME280;36875;49.468;11.200;2023-11-18T10:00:50;98799.16;;;21.08;39.34
50057;BME280;36875;49.468;11.200;2023-11-18T10:03:22;98803.47;;;21.14;39.14
50057;BME280;36875;49.468;11.200;2023-11-18T10:05:48;98792.81;;;21.12;38.95
50057;BME280;36875;49.468;11.200;2023-11-18T10:08:18;98798.06;;;21.09;39.03
50057;BME280;36875;49.468;11.200;2023-11-18T10:10:49;98794.09;;;21.01;38.69
50057;BME280;36875;49.468;11.200;2023-11-18T10:13:14;98804.63;;;21.08;38.12
50057;BME280;36875;49.468;11.200;2023-11-18T10:15:50;98799.59;;;21.15;38.29
50057;BME280;36875;49.468;11.200;2023-11-18T10:18:18;98785.38;;;21.32;37.90
50057;BME280;36875;49.468;11.200;2023-11-18T10:20:52;98787.41;;;21.45;38.27
50057;BME280;36875;49.468;11.200;2023-11-18T10:23:19;98785.63;;;21.68;37.38
50057;BME280;36875;49.468;11.200;2023-11-18T10:25:46;98782.78;;;21.73;37.61
50057;BME280;36875;49.468;11.200;2023-11-18T10:28:23;98784.00;;;21.81;37.63
50057;BME280;36875;49.468;11.200;2023-11-18T10:30:49;98785.44;;;21.92;37.38
50057;BME280;36875;49.468;11.200;2023-11-18T10:33:17;98783.97;;;22.00;37.42
50057;BME280;36875;49.468;11.200;2023-11-18T10:35:49;98780.00;;;22.06;37.52
50057;BME280;36875;49.468;11.200;2023-11-18T10:38:23;98779.09;;;22.25;36.98
50057;BME280;36875;49.468;11.200;2023-11-18T10:40:55;98773.31;;;22.26;36.98
50057;BME280;36875;49.468;11.200;2023-11-18T10:43:21;98779.59;;;22.13;37.39
50057;BME280;36875;49.468;11.200;2023-11-18T10:45:50;98777.97;;;22.40;37.28
50057;BME280;36875;49.468;11.200;2023-11-18T10:48:16;98784.03;;;22.64;36.71
50057;BME280;36875;49.468;11.200;2023-11-18T10:50:46;98787.25;;;22.80;36.46
50057;BME280;36875;49.468;11.200;2023-11-18T10:53:12;98788.50;;;22.74;36.31
50057;BME280;36875;49.468;11.200;2023-11-18T10:55:43;98785.97;;;22.78;36.43
50057;BME280;36875;49.468;11.200;2023-11-18T10:58:09;98783.34;;;22.59;36.98
50057;BME280;36875;49.468;11.200;2023-11-18T11:00:49;98784.22;;;22.68;36.75
50057;BME280;36875;49.468;11.200;2023-11-18T11:03:15;98790.13;;;22.75;36.71
50057;BME280;36875;49.468;11.200;2023-11-18T11:05:40;98788.41;;;22.79;36.28
50057;BME280;36875;49.468;11.200;2023-11-18T11:08:09;98771.28;;;22.82;36.51
50057;BME280;36875;49.468;11.200;2023-11-18T11:10:39;98771.59;;;22.81;36.56
50057;BME280;36875;49.468;11.200;2023-11-18T11:13:08;98773.56;;;23.03;36.21
50057;BME280;36875;49.468;11.200;2023-11-18T11:15:40;98763.63;;;23.29;35.67
50057;BME280;36875;49.468;11.200;2023-11-18T11:18:08;98770.38;;;23.46;35.88
50057;BME280;36875;49.468;11.200;2023-11-18T11:20:42;98767.41;;;23.65;35.53
50057;BME280;36875;49.468;11.200;2023-11-18T11:23:13;98764.47;;;23.84;35.32
50057;BME280;36875;49.468;11.200;2023-11-18T11:25:59;98765.16;;;23.90;35.32
50057;BME280;36875;49.468;11.200;2023-11-18T11:28:34;98763.69;;;23.92;35.97
50057;BME280;36875;49.468;11.200;2023-11-18T11:31:11;98757.03;;;24.33;34.79
50057;BME280;36875;49.468;11.200;2023-11-18T11:33:45;98754.91;;;24.21;35.07
50057;BME280;36875;49.468;11.200;2023-11-18T11:36:17;98764.31;;;24.29;35.47
50057;BME280;36875;49.468;11.200;2023-11-18T11:38:43;98761.34;;;24.57;34.81
50057;BME280;36875;49.468;11.200;2023-11-18T11:41:13;98759.69;;;24.47;35.12
50057;BME280;36875;49.468;11.200;2023-11-18T11:43:53;98757.38;;;24.40;34.99
50057;BME280;36875;49.468;11.200;2023-11-18T11:46:24;98748.25;;;24.54;34.87
50057;BME280;36875;49.468;11.200;2023-11-18T11:48:53;98741.69;;;24.32;35.33
50057;BME280;36875;49.468;11.200;2023-11-18T11:51:24;98736.78;;;24.20;35.22
50057;BME280;36875;49.468;11.200;2023-11-18T11:54:01;98748.75;;;24.16;35.26
50057;BME280;36875;49.468;11.200;2023-11-18T11:56:39;98744.38;;;24.15;35.24
50057;BME280;36875;49.468;11.200;2023-11-18T11:59:08;98736.59;;;24.17;35.25
50057;BME280;36875;49.468;11.200;2023-11-18T12:01:37;98718.84;;;24.23;35.20
50057;BME280;36875;49.468;11.200;2023-11-18T12:04:03;98706.19;;;24.04;35.56
50057;BME280;36875;49.468;11.200;2023-11-18T12:06:32;98715.06;;;24.01;35.26
50057;BME280;36875;49.468;11.200;2023-11-18T12:08:58;98709.25;;;24.03;35.17
50057;BME280;36875;49.468;11.200;2023-11-18T12:11:25;98707.91;;;23.92;35.49
50057;BME280;36875;49.468;11.200;2023-11-18T12:14:03;98702.91;;;23.94;35.15
50057;BME280;36875;49.468;11.200;2023-11-18T12:17:00;98689.69;;;24.04;35.27
50057;BME280;36875;49.468;11.200;2023-11-18T12:19:30;98677.72;;;23.69;35.90
50057;BME280;36875;49.468;11.200;2023-11-18T12:22:02;98671.97;;;23.48;36.40
50057;BME280;36875;49.468;11.200;2023-11-18T12:24:38;98660.50;;;23.46;36.64
50057;BME280;36875;49.468;11.200;2023-11-18T12:27:05;98659.72;;;23.54;36.54
50057;BME280;36875;49.468;11.200;2023-11-18T12:29:41;98647.44;;;23.92;35.83
50057;BME280;36875;49.468;11.200;2023-11-18T12:32:09;98644.06;;;24.03;35.83
50057;BME280;36875;49.468;11.200;2023-11-18T12:34:51;98628.28;;;24.53;35.15
50057;BME280;36875;49.468;11.200;2023-11-18T12:37:39;98631.63;;;25.02;34.40
50057;BME280;36875;49.468;11.200;2023-11-18T12:43:03;98617.47;;;25.21;33.82
50057;BME280;36875;49.468;11.200;2023-11-18T12:45:42;98605.28;;;25.39;34.05
50057;BME280;36875;49.468;11.200;2023-11-18T12:48:20;98615.81;;;25.46;33.63
50057;BME280;36875;49.468;11.200;2023-11-18T12:50:52;98611.41;;;25.45;33.92
50057;BME280;36875;49.468;11.200;2023-11-18T12:53:18;98610.66;;;25.27;34.10
50057;BME280;36875;49.468;11.200;2023-11-18T12:55:44;98610.66;;;25.27;33.80